createdAt,value
2018-07-08T00:04:24.987Z,21.8
2018-07-08T00:14:24.229Z,21.8
2018-07-08T00:24:23.460Z,21.8
2018-07-08T00:34:22.695Z,21.8
2018-07-08T00:44:21.932Z,21.7
2018-07-08T00:54:21.217Z,21.6
2018-07-08T01:04:20.403Z,21.6
2018-07-08T01:14:19.637Z,21.6
2018-07-08T01:24:18.872Z,21.6
2018-07-08T01:34:18.116Z,21.5
2018-07-08T01:44:17.362Z,21.5
2018-07-08T01:54:16.589Z,21.5
2018-07-08T02:04:15.814Z,21.6
2018-07-08T02:14:15.052Z,21.5
2018-07-08T02:24:14.286Z,21.4
2018-07-08T02:34:13.519Z,21.4
2018-07-08T02:44:12.754Z,21.4
2018-07-08T02:54:11.996Z,21.4
2018-07-08T03:04:11.225Z,21.4
2018-07-08T03:14:10.458Z,21.4
2018-07-08T03:24:09.693Z,21.4
2018-07-08T03:34:08.930Z,21.3
2018-07-08T03:44:08.168Z,21.4
2018-07-08T03:54:07.401Z,21.3
2018-07-08T04:04:06.688Z,21.4
2018-07-08T04:14:05.868Z,21.4
2018-07-08T04:24:05.103Z,21.4
2018-07-08T04:34:04.334Z,21.3
2018-07-08T04:44:03.620Z,21.4
2018-07-08T04:54:02.803Z,21.5
2018-07-08T05:04:02.039Z,21.5
2018-07-08T05:14:01.272Z,21.4
2018-07-08T05:24:00.507Z,21.4
2018-07-08T05:33:59.743Z,21.4
2018-07-08T05:43:58.976Z,21.5
2018-07-08T05:53:58.210Z,21.7
2018-07-08T06:03:57.445Z,21.8
2018-07-08T06:13:56.682Z,21.8
2018-07-08T06:23:55.967Z,21.8
2018-07-08T06:33:55.151Z,21.8
2018-07-08T06:43:54.385Z,22
2018-07-08T06:53:53.670Z,22.1
2018-07-08T07:03:52.854Z,22.1
2018-07-08T07:13:52.091Z,22.1
2018-07-08T07:23:51.327Z,22.1
2018-07-08T07:33:50.561Z,22
2018-07-08T07:43:49.797Z,22
2018-07-08T07:53:49.031Z,22
2018-07-08T08:03:48.266Z,22.1
2018-07-08T08:13:47.517Z,22.3
2018-07-08T08:23:46.735Z,22.4
2018-07-08T08:33:45.971Z,22.5
2018-07-08T08:43:45.205Z,22.6
2018-07-08T08:53:44.442Z,22.8
2018-07-08T09:03:43.720Z,22.8
2018-07-08T09:13:42.910Z,22.8
2018-07-08T09:23:42.195Z,22.8
2018-07-08T09:33:41.376Z,22.7
2018-07-08T09:43:40.614Z,22.6
2018-07-08T09:53:39.848Z,22.6
2018-07-08T10:03:39.082Z,22.6
2018-07-08T10:13:38.329Z,22.6
2018-07-08T10:23:37.552Z,22.7
2018-07-08T10:33:36.788Z,22.8
2018-07-08T10:43:36.022Z,22.8
2018-07-08T10:53:35.258Z,22.8
2018-07-08T11:03:34.492Z,22.9
2018-07-08T11:13:33.729Z,22.9
2018-07-08T11:23:32.962Z,23.1
2018-07-08T11:33:32.203Z,23.1
2018-07-08T11:43:31.432Z,23.3
2018-07-08T11:53:30.667Z,23.4
2018-07-08T12:03:29.902Z,23.4
2018-07-08T12:13:29.138Z,23.6
2018-07-08T12:23:28.380Z,23.8
2018-07-08T12:33:27.606Z,24.2
2018-07-08T12:43:26.842Z,24.6
2018-07-08T12:53:26.078Z,24.8
2018-07-08T13:03:25.313Z,24.9
2018-07-08T13:13:24.548Z,24.8
2018-07-08T13:23:23.782Z,24.6
2018-07-08T13:33:23.018Z,24.5
2018-07-08T13:43:22.255Z,24.2
2018-07-08T13:53:21.492Z,23.9
2018-07-08T14:03:20.726Z,23.6
2018-07-08T14:13:19.968Z,23.5
2018-07-08T14:23:19.200Z,23.4
2018-07-08T14:33:18.438Z,23.4
2018-07-08T14:43:17.676Z,23.3
2018-07-08T14:53:16.909Z,22.8
2018-07-08T15:03:16.146Z,22.4
2018-07-08T15:13:15.432Z,22.2
2018-07-08T15:23:14.617Z,22.2
2018-07-08T15:33:13.853Z,22.3
2018-07-08T15:43:13.090Z,22.3
2018-07-08T15:53:12.326Z,22.2
2018-07-08T16:03:11.563Z,22.1
2018-07-08T16:13:10.804Z,21.9
2018-07-08T16:23:10.040Z,21.6
2018-07-08T16:33:09.281Z,21.3
2018-07-08T16:43:08.522Z,21
2018-07-08T16:53:07.755Z,20.8
2018-07-08T17:03:06.997Z,20.7
2018-07-08T17:13:06.237Z,20.9
2018-07-08T17:23:05.474Z,21.1
2018-07-08T17:33:04.714Z,21.3
2018-07-08T17:43:03.956Z,21.3
2018-07-08T17:53:03.194Z,21.2
2018-07-08T18:03:02.422Z,21.2
2018-07-08T18:13:01.658Z,21.4
2018-07-08T18:23:00.896Z,21.5
2018-07-08T18:33:00.133Z,21.6
2018-07-08T18:42:59.375Z,21.7
2018-07-08T18:52:58.616Z,21.8
2018-07-08T19:02:57.858Z,21.8
2018-07-08T19:12:57.086Z,21.6
2018-07-08T19:22:56.326Z,21.5
2018-07-08T19:32:55.564Z,21.4
2018-07-08T19:42:54.809Z,21.3
2018-07-08T19:52:54.043Z,21.2
2018-07-08T20:02:53.296Z,21.1
2018-07-08T20:12:52.515Z,21
2018-07-08T20:22:51.753Z,21
2018-07-08T20:32:50.988Z,21.1
2018-07-08T20:42:50.226Z,21.2
2018-07-08T20:52:49.463Z,21.3
2018-07-08T21:02:48.701Z,21.3
2018-07-08T21:12:48.099Z,21.3
2018-07-08T21:22:47.174Z,21.3
2018-07-08T21:32:46.410Z,21.4
2018-07-08T21:42:45.648Z,21.4
2018-07-08T21:52:44.885Z,21.4
2018-07-08T22:02:44.122Z,21.5
2018-07-08T22:12:43.361Z,21.5
2018-07-08T22:22:42.597Z,21.6
2018-07-08T22:32:41.836Z,21.6
2018-07-08T22:42:41.076Z,21.6
2018-07-08T22:52:40.306Z,21.7
2018-07-08T23:02:39.546Z,21.7
2018-07-08T23:12:38.789Z,21.8
2018-07-08T23:22:38.021Z,21.8
2018-07-08T23:32:37.256Z,21.8
2018-07-08T23:42:36.491Z,21.8
2018-07-08T23:52:35.727Z,21.8
